Time;durP1;ratioP1;P1;durP2;ratioP2;P2;SDS_P1;SDS_P2;PMS_P1;PMS_P2;Temp;Humidity;BMP_temperature;BMP_pressure;BME280_temperature;BME280_humidity;BME280_pressure;Samples;Min_cycle;Max_cycle;Signal;HPM_P1;HPM_P2
2023/05/15 00:01:29;;;;;;;3.20;1.58;;;15.70;99.90;;;;;;5069908;28;20086;-62
2023/05/15 00:03:56;;;;;;;3.15;1.67;;;15.60;99.90;;;;;;5068623;28;20426;-62
2023/05/15 00:06:23;;;;;;;2.80;1.50;;;15.60;99.90;;;;;;5069328;28;20064;-61
2023/05/15 00:08:49;;;;;;;5.50;1.80;;;15.60;99.90;;;;;;5069455;28;20044;-61
2023/05/15 00:11:16;;;;;;;3.00;1.80;;;15.60;99.90;;;;;;5069684;28;20450;-61
2023/05/15 00:13:43;;;;;;;2.00;1.48;;;15.60;99.90;;;;;;5067999;28;20056;-62
2023/05/15 00:16:10;;;;;;;3.88;1.40;;;15.50;99.90;;;;;;5069814;28;20086;-62
2023/05/15 00:18:37;;;;;;;4.43;1.88;;;15.50;99.90;;;;;;5069130;28;20041;-62
2023/05/15 00:21:03;;;;;;;2.20;1.63;;;15.50;99.90;;;;;;5068944;28;20040;-64
2023/05/15 00:23:30;;;;;;;1.67;1.15;;;15.50;99.90;;;;;;5069221;28;20053;-62
2023/05/15 00:25:57;;;;;;;2.70;1.63;;;15.50;99.90;;;;;;5068945;28;20043;-61
2023/05/15 00:28:24;;;;;;;4.03;1.77;;;15.50;99.90;;;;;;5069317;28;20070;-61
2023/05/15 00:30:51;;;;;;;2.38;1.77;;;15.40;99.90;;;;;;5069092;28;20399;-61
2023/05/15 00:33:18;;;;;;;3.80;2.00;;;15.40;99.90;;;;;;5071157;28;20056;-61
2023/05/15 00:35:45;;;;;;;3.30;1.95;;;15.40;99.90;;;;;;5067503;28;20051;-61
2023/05/15 00:38:11;;;;;;;3.38;1.83;;;15.40;99.90;;;;;;5069250;28;20128;-62
2023/05/15 00:40:38;;;;;;;2.70;1.83;;;15.40;99.90;;;;;;5069089;28;20523;-62
2023/05/15 00:43:05;;;;;;;2.67;1.98;;;15.40;99.90;;;;;;4686961;28;10000358;-61
2023/05/15 00:45:32;;;;;;;4.00;1.80;;;15.40;99.90;;;;;;5070833;28;20136;-61
2023/05/15 00:47:59;;;;;;;18.13;2.92;;;15.40;99.90;;;;;;5050845;28;20064;-61
2023/05/15 00:50:26;;;;;;;1.75;1.60;;;15.40;99.90;;;;;;5069446;28;20080;-61
2023/05/15 00:52:53;;;;;;;3.95;1.95;;;15.40;99.90;;;;;;5079818;28;20059;-61
2023/05/15 00:55:19;;;;;;;4.35;1.92;;;15.30;99.90;;;;;;5037946;28;20475;-62
2023/05/15 00:57:46;;;;;;;3.20;1.63;;;15.30;99.90;;;;;;5061869;28;20041;-61
2023/05/15 01:00:15;;;;;;;2.10;1.60;;;15.30;99.90;;;;;;5068487;28;20269;-61
2023/05/15 01:02:42;;;;;;;2.70;2.03;;;15.30;99.90;;;;;;5068782;28;20048;-62
2023/05/15 01:05:09;;;;;;;4.13;1.77;;;15.40;99.90;;;;;;5076390;28;20537;-61
2023/05/15 01:07:51;;;;;;;6.22;2.55;;;15.30;99.90;;;;;;5069114;28;20044;-62
2023/05/15 01:10:18;;;;;;;3.88;2.50;;;15.30;99.90;;;;;;5060626;28;20135;-61
2023/05/15 01:12:45;;;;;;;3.50;2.13;;;15.20;99.90;;;;;;5061433;28;20135;-62
2023/05/15 01:15:11;;;;;;;5.78;1.63;;;15.20;99.90;;;;;;5067647;28;20495;-61
2023/05/15 01:17:38;;;;;;;4.18;1.85;;;15.30;99.90;;;;;;5068164;28;20049;-61
2023/05/15 01:20:05;;;;;;;4.10;1.67;;;15.40;99.90;;;;;;5067850;28;20071;-61
2023/05/15 01:22:59;;;;;;;7.13;2.20;;;15.40;99.90;;;;;;5055154;28;20051;-61
2023/05/15 01:25:52;;;;;;;2.47;1.63;;;15.40;99.90;;;;;;5031426;28;20072;-62
2023/05/15 01:28:34;;;;;;;1.98;1.67;;;15.50;99.90;;;;;;5040979;28;20049;-62
2023/05/15 01:31:04;;;;;;;1.92;1.60;;;15.50;99.90;;;;;;5053954;28;20044;-61
2023/05/15 01:33:35;;;;;;;4.30;1.27;;;15.50;99.90;;;;;;5055165;28;20039;-61
2023/05/15 01:36:18;;;;;;;1.88;1.05;;;15.50;99.90;;;;;;5066810;28;20053;-60
2023/05/15 01:38:56;;;;;;;2.22;1.48;;;15.50;99.90;;;;;;5057575;28;20050;-61
2023/05/15 01:41:27;;;;;;;3.35;1.20;;;15.50;99.90;;;;;;5043426;28;20048;-61
2023/05/15 01:44:06;;;;;;;2.60;1.02;;;15.40;99.90;;;;;;5066785;28;20060;-61
2023/05/15 01:46:34;;;;;;;3.88;1.30;;;15.40;99.90;;;;;;5059473;28;20045;-61
2023/05/15 01:49:00;;;;;;;2.35;1.20;;;15.40;99.90;;;;;;5057010;28;20056;-61
2023/05/15 01:51:27;;;;;;;1.75;1.02;;;15.30;99.90;;;;;;5058237;28;20124;-61
2023/05/15 01:53:55;;;;;;;3.72;1.17;;;15.40;99.90;;;;;;5073513;28;20144;-62
2023/05/15 01:56:22;;;;;;;9.60;1.67;;;15.30;99.90;;;;;;5035080;28;20137;-62
2023/05/15 01:58:48;;;;;;;3.60;0.90;;;15.30;99.90;;;;;;5055675;28;20041;-62
2023/05/15 02:01:15;;;;;;;3.92;1.52;;;15.20;99.90;;;;;;5052898;28;20063;-61
2023/05/15 02:03:42;;;;;;;2.15;1.05;;;15.20;99.90;;;;;;5060058;28;20564;-62
2023/05/15 02:06:09;;;;;;;6.15;1.20;;;15.20;99.90;;;;;;5066665;28;20127;-61
2023/05/15 02:08:35;;;;;;;4.97;1.13;;;15.10;99.90;;;;;;5066273;28;20048;-62
2023/05/15 02:11:02;;;;;;;2.65;1.65;;;15.10;99.90;;;;;;5079135;28;20109;-61
2023/05/15 02:13:30;;;;;;;2.08;1.33;;;15.10;99.90;;;;;;5060581;28;20048;-62
2023/05/15 02:15:57;;;;;;;5.82;2.10;;;15.00;99.90;;;;;;5049397;28;20253;-61
2023/05/15 02:18:24;;;;;;;3.30;1.27;;;15.00;99.90;;;;;;5076652;28;20052;-61
2023/05/15 02:20:51;;;;;;;2.85;1.50;;;15.00;99.90;;;;;;5066030;28;20280;-62
2023/05/15 02:23:19;;;;;;;1.98;1.45;;;15.00;99.90;;;;;;5065958;28;20051;-62
2023/05/15 02:26:10;;;;;;;3.65;1.90;;;15.00;99.90;;;;;;5066100;28;20050;-61
2023/05/15 02:28:43;;;;;;;4.88;1.98;;;15.00;99.90;;;;;;5066057;28;20139;-62
2023/05/15 02:31:21;;;;;;;4.17;1.87;;;15.00;99.90;;;;;;5047378;28;20055;-61
2023/05/15 02:34:11;;;;;;;3.10;1.80;;;14.90;99.90;;;;;;5058767;28;20269;-62
2023/05/15 02:36:39;;;;;;;5.75;1.92;;;14.90;99.90;;;;;;5049158;28;20530;-62
2023/05/15 02:39:06;;;;;;;6.13;2.67;;;14.90;99.90;;;;;;5074495;28;20187;-61
2023/05/15 02:41:33;;;;;;;4.22;2.42;;;14.80;99.90;;;;;;5047848;28;20103;-60
2023/05/15 02:44:00;;;;;;;3.97;2.10;;;14.70;99.90;;;;;;5074039;28;20231;-62
2023/05/15 02:46:26;;;;;;;4.38;2.08;;;14.80;99.90;;;;;;5045959;28;20075;-61
2023/05/15 02:48:53;;;;;;;3.10;2.00;;;14.80;99.90;;;;;;5071789;28;20072;-61
2023/05/15 02:51:20;;;;;;;4.90;1.60;;;14.70;99.90;;;;;;5057247;28;20127;-61
2023/05/15 02:53:46;;;;;;;8.13;2.55;;;14.70;99.90;;;;;;5066298;28;20064;-61
2023/05/15 02:56:13;;;;;;;3.85;2.35;;;14.70;99.90;;;;;;5071510;28;20044;-61
2023/05/15 02:58:40;;;;;;;4.85;2.40;;;14.70;99.90;;;;;;5067491;28;20054;-62
2023/05/15 03:01:06;;;;;;;2.88;2.15;;;14.80;99.90;;;;;;5064117;28;20493;-61
2023/05/15 03:03:33;;;;;;;4.18;2.45;;;14.70;99.90;;;;;;5069743;28;20109;-61
2023/05/15 03:06:00;;;;;;;2.85;2.15;;;14.60;99.90;;;;;;5063428;28;20239;-61
2023/05/15 03:08:27;;;;;;;5.00;2.28;;;14.70;99.90;;;;;;5070591;28;20053;-62
2023/05/15 03:10:54;;;;;;;4.18;2.05;;;14.60;99.90;;;;;;5064596;28;20088;-62
2023/05/15 03:13:21;;;;;;;8.15;2.15;;;14.60;99.90;;;;;;5069916;28;20078;-62
2023/05/15 03:15:47;;;;;;;3.45;2.28;;;14.50;99.90;;;;;;5069168;28;20495;-62
2023/05/15 03:18:14;;;;;;;4.40;2.42;;;14.50;99.90;;;;;;5057165;28;20041;-63
2023/05/15 03:20:44;;;;;;;4.93;2.60;;;14.50;99.90;;;;;;5069943;28;20061;-62
2023/05/15 03:23:11;;;;;;;6.85;2.72;;;14.50;99.90;;;;;;5069754;28;20070;-62
2023/05/15 03:25:38;;;;;;;6.43;2.92;;;14.50;99.90;;;;;;5068987;28;20052;-62
2023/05/15 03:28:04;;;;;;;4.65;2.88;;;14.50;99.90;;;;;;5069747;28;20050;-61
2023/05/15 03:30:31;;;;;;;4.72;2.75;;;14.40;99.90;;;;;;5069864;28;20471;-61
2023/05/15 03:32:58;;;;;;;4.45;2.95;;;14.40;99.90;;;;;;5068102;28;20451;-61
2023/05/15 03:35:25;;;;;;;4.07;2.22;;;14.40;99.90;;;;;;5069514;28;20476;-61
2023/05/15 03:37:52;;;;;;;3.20;2.33;;;14.30;99.90;;;;;;5076606;28;20044;-61
2023/05/15 03:40:19;;;;;;;4.10;2.70;;;14.30;99.90;;;;;;5069092;28;20465;-62
2023/05/15 03:42:46;;;;;;;3.38;2.58;;;14.40;99.90;;;;;;5069778;28;20139;-61
2023/05/15 03:45:12;;;;;;;3.47;2.17;;;14.40;99.90;;;;;;5069031;28;20102;-61
2023/05/15 03:47:39;;;;;;;4.07;2.70;;;14.40;99.90;;;;;;5069783;28;20469;-61
2023/05/15 03:50:06;;;;;;;3.42;2.30;;;14.30;99.90;;;;;;5069709;28;20036;-61
2023/05/15 03:52:33;;;;;;;3.03;2.40;;;14.20;99.90;;;;;;5069717;28;20040;-62
2023/05/15 03:55:00;;;;;;;3.72;2.72;;;14.20;99.90;;;;;;5069150;28;20124;-62
2023/05/15 03:57:27;;;;;;;3.30;2.15;;;14.30;99.90;;;;;;5063542;28;20084;-61
2023/05/15 03:59:54;;;;;;;4.80;2.80;;;14.20;99.90;;;;;;5066174;28;20040;-62
2023/05/15 04:02:21;;;;;;;4.43;2.42;;;14.30;99.90;;;;;;5069212;28;20105;-60
2023/05/15 04:04:48;;;;;;;7.10;3.10;;;14.10;99.90;;;;;;5066637;28;20057;-61
2023/05/15 04:07:14;;;;;;;7.25;3.28;;;14.10;99.90;;;;;;5069294;28;20048;-61
2023/05/15 04:09:41;;;;;;;5.72;3.20;;;14.00;99.90;;;;;;5068624;28;20052;-61
2023/05/15 04:12:08;;;;;;;6.22;3.08;;;14.00;99.90;;;;;;5069601;28;20403;-61
2023/05/15 04:14:35;;;;;;;3.53;3.22;;;14.00;99.90;;;;;;5068409;28;20062;-61
2023/05/15 04:17:01;;;;;;;5.82;3.67;;;14.10;99.90;;;;;;5068709;28;20076;-61
2023/05/15 04:19:28;;;;;;;3.83;3.42;;;14.00;99.90;;;;;;5069001;28;20053;-61
2023/05/15 04:21:55;;;;;;;6.03;3.63;;;14.00;99.90;;;;;;5068055;28;20499;-61
2023/05/15 04:24:22;;;;;;;4.90;3.50;;;14.00;99.90;;;;;;5059571;28;20052;-61
2023/05/15 04:26:48;;;;;;;6.68;4.22;;;14.00;99.90;;;;;;5067958;28;20491;-62
2023/05/15 04:29:15;;;;;;;5.55;3.67;;;14.00;99.90;;;;;;5056284;28;20529;-61
2023/05/15 04:31:42;;;;;;;6.07;3.80;;;13.90;99.90;;;;;;5068200;28;20080;-62
2023/05/15 04:34:09;;;;;;;6.35;3.55;;;13.90;99.90;;;;;;5056673;28;20055;-62
2023/05/15 04:36:36;;;;;;;4.65;4.15;;;13.90;99.90;;;;;;5068379;28;20048;-62
2023/05/15 04:39:03;;;;;;;5.32;4.22;;;13.70;99.90;;;;;;5067377;28;20083;-62
2023/05/15 04:41:32;;;;;;;5.30;4.00;;;13.70;99.90;;;;;;5054881;28;20091;-61
2023/05/15 04:43:58;;;;;;;4.75;4.22;;;13.60;99.90;;;;;;5068218;28;20494;-62
2023/05/15 04:46:25;;;;;;;7.40;3.70;;;13.60;99.90;;;;;;5069149;28;20306;-61
2023/05/15 04:48:52;;;;;;;5.50;3.78;;;13.60;99.90;;;;;;5060447;28;20048;-61
2023/05/15 04:51:18;;;;;;;5.78;3.83;;;13.60;99.90;;;;;;5068194;28;20122;-62
2023/05/15 04:53:45;;;;;;;4.65;4.07;;;13.50;99.90;;;;;;5068262;28;20127;-62
2023/05/15 04:56:12;;;;;;;10.13;3.97;;;13.50;99.90;;;;;;5067874;28;20135;-62
2023/05/15 04:58:39;;;;;;;12.38;4.20;;;13.40;99.90;;;;;;5068267;28;20080;-62
2023/05/15 05:01:05;;;;;;;13.43;3.72;;;13.40;99.90;;;;;;5068037;28;20048;-62
2023/05/15 05:03:32;;;;;;;6.72;3.67;;;13.30;99.90;;;;;;5068027;28;20094;-61
2023/05/15 05:05:59;;;;;;;7.25;3.78;;;13.30;99.90;;;;;;5068103;28;20056;-61
2023/05/15 05:08:26;;;;;;;9.20;3.28;;;13.20;99.90;;;;;;5076387;28;20098;-61
2023/05/15 05:10:59;;;;;;;9.20;3.92;;;13.20;99.90;;;;;;5056124;28;20055;-63
2023/05/15 05:13:26;;;;;;;5.82;3.53;;;13.20;99.90;;;;;;5067324;28;20087;-62
2023/05/15 05:15:53;;;;;;;9.77;3.75;;;13.20;99.90;;;;;;5067832;28;20132;-62
2023/05/15 05:18:19;;;;;;;7.40;3.28;;;13.00;99.90;;;;;;5067202;28;20044;-61
2023/05/15 05:20:46;;;;;;;8.82;3.40;;;13.00;99.90;;;;;;5067680;28;20136;-61
2023/05/15 05:23:17;;;;;;;5.72;3.22;;;12.90;99.90;;;;;;5067659;28;20280;-62
2023/05/15 05:25:43;;;;;;;7.30;3.53;;;12.80;99.90;;;;;;5063900;28;20288;-62
2023/05/15 05:28:10;;;;;;;4.63;3.00;;;12.80;99.90;;;;;;5054165;28;20075;-62
2023/05/15 05:30:37;;;;;;;4.97;2.95;;;12.70;99.90;;;;;;5056181;28;20049;-62
2023/05/15 05:33:03;;;;;;;6.38;3.38;;;12.70;99.90;;;;;;5067116;28;20051;-62
2023/05/15 05:35:30;;;;;;;6.18;3.03;;;12.70;99.90;;;;;;5066922;28;20483;-61
2023/05/15 05:37:57;;;;;;;8.13;2.92;;;12.80;99.90;;;;;;5067345;28;20229;-62
2023/05/15 05:40:24;;;;;;;8.57;3.20;;;12.70;99.90;;;;;;5053083;28;20072;-62
2023/05/15 05:42:51;;;;;;;7.32;2.47;;;12.70;99.90;;;;;;5072945;28;20071;-61
2023/05/15 05:45:18;;;;;;;9.30;3.25;;;12.70;99.90;;;;;;5068644;28;20158;-62
2023/05/15 05:47:45;;;;;;;6.93;2.40;;;12.70;99.90;;;;;;5067324;28;20055;-62
2023/05/15 05:50:12;;;;;;;4.38;1.88;;;12.70;99.90;;;;;;5067293;28;20065;-63
2023/05/15 05:52:39;;;;;;;5.38;1.98;;;12.60;99.90;;;;;;5067760;28;20068;-62
2023/05/15 05:55:06;;;;;;;5.40;1.95;;;12.60;99.90;;;;;;5067044;28;20134;-62
2023/05/15 05:57:32;;;;;;;4.85;2.25;;;12.60;99.90;;;;;;5077688;28;20174;-61
2023/05/15 05:59:59;;;;;;;5.78;1.90;;;12.60;99.90;;;;;;5054877;28;20045;-62
2023/05/15 06:02:26;;;;;;;9.35;2.25;;;12.60;99.90;;;;;;5075772;28;20090;-62
2023/05/15 06:04:53;;;;;;;5.93;1.77;;;12.70;99.90;;;;;;5056718;28;20098;-61
2023/05/15 06:07:20;;;;;;;7.55;2.22;;;12.60;99.90;;;;;;5060508;28;20045;-61
2023/05/15 06:09:47;;;;;;;11.00;2.90;;;12.60;99.90;;;;;;5066209;28;20106;-62
2023/05/15 06:12:14;;;;;;;11.48;2.13;;;12.70;99.90;;;;;;5067319;28;20045;-61
2023/05/15 06:14:41;;;;;;;10.30;3.30;;;12.60;99.90;;;;;;5066881;28;20633;-61
2023/05/15 06:17:07;;;;;;;11.45;2.55;;;12.60;99.90;;;;;;5066172;28;20116;-62
2023/05/15 06:19:34;;;;;;;11.02;2.25;;;12.60;99.90;;;;;;5066543;28;20147;-61
2023/05/15 06:22:01;;;;;;;6.88;2.00;;;12.60;99.90;;;;;;5065781;28;20098;-61
2023/05/15 06:24:28;;;;;;;8.88;2.38;;;12.70;99.90;;;;;;5064260;28;20049;-61
2023/05/15 06:26:55;;;;;;;9.55;2.70;;;12.70;99.90;;;;;;5057438;28;20059;-61
2023/05/15 06:29:21;;;;;;;4.82;2.10;;;12.70;99.90;;;;;;5050832;28;20055;-61
2023/05/15 06:31:48;;;;;;;11.23;2.42;;;12.50;99.90;;;;;;5066145;28;20040;-61
2023/05/15 06:34:15;;;;;;;10.30;2.83;;;12.50;99.90;;;;;;5066264;28;20084;-61
2023/05/15 06:36:42;;;;;;;6.82;2.45;;;12.50;99.90;;;;;;5053550;28;20076;-61
2023/05/15 06:39:11;;;;;;;11.90;2.22;;;12.40;99.90;;;;;;5065790;28;20568;-60
2023/05/15 06:41:38;;;;;;;9.65;2.22;;;12.50;99.90;;;;;;5064189;28;20052;-60
2023/05/15 06:44:05;;;;;;;10.20;2.35;;;12.50;99.90;;;;;;5065625;28;20044;-61
2023/05/15 06:46:32;;;;;;;14.35;2.58;;;12.60;99.90;;;;;;5064630;28;20132;-61
2023/05/15 06:48:59;;;;;;;13.43;2.38;;;12.60;99.90;;;;;;5064029;28;20052;-61
2023/05/15 06:51:26;;;;;;;5.47;2.10;;;12.60;99.90;;;;;;5064817;28;20037;-61
2023/05/15 06:53:53;;;;;;;8.75;1.95;;;12.70;99.90;;;;;;5076465;28;20048;-61
2023/05/15 06:56:20;;;;;;;6.18;1.88;;;12.70;99.90;;;;;;5066229;28;20467;-61
2023/05/15 06:58:47;;;;;;;9.23;2.80;;;12.80;99.90;;;;;;5066487;28;20464;-59
2023/05/15 07:01:14;;;;;;;9.93;2.30;;;12.90;99.90;;;;;;5063174;28;20373;-60
2023/05/15 07:03:41;;;;;;;11.30;1.85;;;12.90;99.90;;;;;;4712443;28;10000269;-61
2023/05/15 07:06:08;;;;;;;9.60;2.03;;;13.00;99.90;;;;;;5061899;28;20328;-60
2023/05/15 07:08:35;;;;;;;15.88;6.28;;;12.80;99.90;;;;;;5062140;28;20059;-60
2023/05/15 07:11:02;;;;;;;7.93;1.80;;;12.80;99.90;;;;;;5061345;28;20044;-61
2023/05/15 07:13:29;;;;;;;6.00;1.52;;;12.70;99.90;;;;;;5061157;28;20048;-61
2023/05/15 07:15:56;;;;;;;5.93;1.73;;;12.70;99.90;;;;;;5061798;28;20045;-61
2023/05/15 07:18:22;;;;;;;6.35;1.40;;;12.80;99.90;;;;;;5062852;28;20521;-61
2023/05/15 07:20:49;;;;;;;7.38;1.30;;;12.80;99.90;;;;;;5062684;28;20465;-62
2023/05/15 07:23:16;;;;;;;5.68;1.67;;;12.80;99.90;;;;;;5062861;28;20444;-61
2023/05/15 07:25:43;;;;;;;4.82;1.80;;;12.80;99.90;;;;;;5062773;28;20052;-61
2023/05/15 07:28:11;;;;;;;6.03;1.58;;;12.80;99.90;;;;;;5062030;28;20542;-61
2023/05/15 07:30:40;;;;;;;8.25;1.90;;;12.90;99.90;;;;;;5057185;28;20867;-61
2023/05/15 07:33:06;;;;;;;7.65;1.60;;;13.00;99.90;;;;;;5064434;28;20239;-70
2023/05/15 07:35:33;;;;;;;6.53;1.85;;;12.90;99.90;;;;;;5057653;28;20106;-61
2023/05/15 07:38:00;;;;;;;9.27;1.38;;;12.90;99.90;;;;;;5065496;28;20516;-60
2023/05/15 07:40:27;;;;;;;14.52;2.33;;;12.90;99.90;;;;;;5065787;28;20045;-63
2023/05/15 07:42:54;;;;;;;8.77;1.58;;;12.90;99.90;;;;;;5063641;28;20032;-60
2023/05/15 07:45:21;;;;;;;4.70;1.30;;;12.90;99.90;;;;;;5067750;28;20139;-60
2023/05/15 07:47:48;;;;;;;12.65;1.63;;;12.80;99.90;;;;;;5067058;28;20070;-61
2023/05/15 07:50:15;;;;;;;7.20;2.13;;;12.80;99.90;;;;;;5069164;28;20056;-60
2023/05/15 07:52:42;;;;;;;7.03;1.45;;;12.90;99.90;;;;;;5073041;28;20045;-60
2023/05/15 07:55:09;;;;;;;10.93;2.13;;;12.80;99.90;;;;;;5066853;28;20066;-61
2023/05/15 07:57:36;;;;;;;6.38;1.80;;;13.00;99.90;;;;;;5073476;28;20064;-61
2023/05/15 08:00:08;;;;;;;7.38;1.45;;;13.00;99.90;;;;;;5072699;28;20045;-61
2023/05/15 08:02:35;;;;;;;4.65;1.35;;;13.00;99.90;;;;;;5077531;28;20055;-61
2023/05/15 08:05:03;;;;;;;10.38;1.65;;;13.00;99.90;;;;;;5076075;28;20155;-61
2023/05/15 08:07:30;;;;;;;15.10;2.05;;;13.10;99.90;;;;;;5077408;28;20114;-62
2023/05/15 08:09:57;;;;;;;10.57;1.55;;;12.90;99.90;;;;;;5067501;28;20080;-61
2023/05/15 08:12:25;;;;;;;7.90;1.88;;;13.00;99.90;;;;;;5064679;28;20044;-60
2023/05/15 08:14:52;;;;;;;12.00;1.73;;;13.20;99.90;;;;;;5058071;28;20063;-60
2023/05/15 08:17:19;;;;;;;4.25;1.30;;;13.40;99.90;;;;;;5068483;28;20044;-60
2023/05/15 08:19:47;;;;;;;8.50;2.83;;;13.40;99.90;;;;;;5056516;28;20102;-60
2023/05/15 08:22:14;;;;;;;4.57;1.27;;;13.50;99.90;;;;;;5074950;28;20047;-60
2023/05/15 08:24:41;;;;;;;7.65;1.77;;;13.60;99.90;;;;;;5057993;28;20462;-61
2023/05/15 08:27:08;;;;;;;5.82;1.08;;;13.80;99.90;;;;;;5068157;28;20166;-61
2023/05/15 08:29:35;;;;;;;17.02;1.83;;;13.80;99.90;;;;;;5067938;28;20503;-61
2023/05/15 08:32:06;;;;;;;7.43;2.10;;;13.90;99.90;;;;;;5073933;28;20102;-62
2023/05/15 08:34:32;;;;;;;5.82;1.38;;;13.80;99.90;;;;;;5022238;28;20132;-62
2023/05/15 08:36:59;;;;;;;9.48;1.60;;;13.80;99.90;;;;;;5067826;28;20513;-60
2023/05/15 08:39:26;;;;;;;5.38;1.30;;;13.80;99.90;;;;;;5063150;28;20075;-62
2023/05/15 08:42:20;;;;;;;6.75;1.38;;;14.00;99.90;;;;;;5052311;28;20136;-61
2023/05/15 08:44:47;;;;;;;8.02;1.55;;;14.00;99.90;;;;;;5021816;28;20127;-61
2023/05/15 08:47:14;;;;;;;11.15;3.25;;;13.90;99.90;;;;;;5067599;28;20337;-61
2023/05/15 08:50:17;;;;;;;6.70;1.73;;;14.00;99.90;;;;;;5069464;28;20410;-61
2023/05/15 08:52:45;;;;;;;7.40;1.50;;;14.00;99.90;;;;;;4993293;28;20033;-60
2023/05/15 08:55:13;;;;;;;16.55;2.38;;;14.10;99.90;;;;;;5058384;28;20059;-62
2023/05/15 08:57:40;;;;;;;4.05;1.63;;;14.20;99.90;;;;;;5055864;28;20048;-61
2023/05/15 09:00:08;;;;;;;6.18;1.70;;;14.30;99.90;;;;;;5058271;28;20045;-62
2023/05/15 09:02:36;;;;;;;5.80;1.65;;;14.30;99.90;;;;;;5071006;28;20491;-60
2023/05/15 09:05:04;;;;;;;6.57;1.90;;;14.30;99.90;;;;;;5022109;28;20188;-61
2023/05/15 09:07:30;;;;;;;7.65;1.20;;;14.40;99.90;;;;;;5071482;28;20040;-61
2023/05/15 09:09:58;;;;;;;4.45;1.27;;;14.40;99.90;;;;;;5058918;28;20148;-61
2023/05/15 09:12:25;;;;;;;3.28;1.13;;;14.40;99.90;;;;;;5075108;28;20518;-60
2023/05/15 09:15:09;;;;;;;11.60;1.65;;;14.50;99.90;;;;;;5073239;28;20055;-62
2023/05/15 09:17:37;;;;;;;6.85;1.10;;;14.40;99.90;;;;;;5054643;28;20076;-61
2023/05/15 09:20:07;;;;;;;5.20;1.08;;;14.50;99.90;;;;;;5069008;28;20060;-61
2023/05/15 09:22:37;;;;;;;9.38;1.42;;;14.60;99.90;;;;;;5056075;28;20110;-60
2023/05/15 09:25:04;;;;;;;11.95;1.30;;;14.70;99.90;;;;;;5064608;28;20239;-60
2023/05/15 09:27:40;;;;;;;4.53;0.93;;;14.70;99.90;;;;;;5060931;28;20076;-60
2023/05/15 09:30:09;;;;;;;3.95;1.73;;;14.80;99.90;;;;;;4713465;28;10000633;-63
2023/05/15 09:32:36;;;;;;;13.73;1.98;;;14.80;99.90;;;;;;5069750;28;20044;-60
2023/05/15 09:35:04;;;;;;;8.80;1.38;;;14.70;99.90;;;;;;5052269;28;20049;-60
2023/05/15 09:37:32;;;;;;;11.52;1.63;;;14.60;99.90;;;;;;5068357;28;20134;-60
2023/05/15 09:40:09;;;;;;;7.18;1.02;;;14.80;99.90;;;;;;5073713;28;20571;-60
2023/05/15 09:42:37;;;;;;;4.55;1.08;;;15.00;99.90;;;;;;5066057;28;20071;-61
2023/05/15 09:45:05;;;;;;;5.35;1.17;;;15.10;99.90;;;;;;5066560;28;20064;-60
2023/05/15 09:47:32;;;;;;;7.25;1.30;;;15.00;99.90;;;;;;5065726;28;20498;-61
2023/05/15 09:49:59;;;;;;;4.55;1.00;;;14.90;98.50;;;;;;5028163;28;20092;-60
2023/05/15 09:52:27;;;;;;;5.30;1.88;;;14.70;99.90;;;;;;5037575;28;20575;-60
2023/05/15 09:54:55;;;;;;;4.05;1.60;;;14.90;99.90;;;;;;5058797;28;20546;-61
2023/05/15 09:57:22;;;;;;;7.03;1.50;;;15.00;99.30;;;;;;5068568;28;20131;-61
2023/05/15 09:59:49;;;;;;;3.88;1.05;;;15.00;99.90;;;;;;5072877;28;20496;-61
2023/05/15 10:02:35;;;;;;;11.23;1.98;;;14.90;99.90;;;;;;5075271;28;20056;-60
2023/05/15 10:05:02;;;;;;;4.95;1.63;;;15.00;98.40;;;;;;5054228;28;20125;-60
2023/05/15 10:07:30;;;;;;;3.00;1.17;;;15.30;98.10;;;;;;5042478;28;20055;-62
2023/05/15 10:09:57;;;;;;;5.40;1.30;;;15.80;99.50;;;;;;5071373;28;20113;-61
2023/05/15 10:12:25;;;;;;;8.27;1.33;;;16.20;99.40;;;;;;5053891;28;20391;-62
2023/05/15 10:14:54;;;;;;;6.93;1.17;;;16.60;98.60;;;;;;5052180;28;20041;-61
2023/05/15 10:17:20;;;;;;;7.15;1.20;;;16.90;96.30;;;;;;5046019;28;20580;-62
2023/05/15 10:19:50;;;;;;;8.85;1.55;;;17.00;94.20;;;;;;5057615;28;20549;-61
2023/05/15 10:22:27;;;;;;;9.10;1.60;;;16.70;90.50;;;;;;5053150;28;20040;-61
2023/05/15 10:25:01;;;;;;;9.43;1.85;;;16.50;91.40;;;;;;5073135;28;20040;-60
2023/05/15 10:27:29;;;;;;;6.50;1.52;;;16.60;92.90;;;;;;5071848;28;20511;-61
2023/05/15 10:29:56;;;;;;;5.00;1.17;;;16.50;92.10;;;;;;5071583;28;20148;-61
2023/05/15 10:32:23;;;;;;;5.30;1.90;;;16.50;93.70;;;;;;5047327;28;20127;-61
2023/05/15 10:34:50;;;;;;;6.30;1.60;;;16.50;93.30;;;;;;5055546;28;20044;-61
2023/05/15 10:37:17;;;;;;;7.70;1.45;;;16.70;90.90;;;;;;5059333;28;20152;-61
2023/05/15 10:39:45;;;;;;;7.97;1.50;;;16.90;92.60;;;;;;5034520;28;20599;-60
2023/05/15 10:42:12;;;;;;;7.93;1.17;;;17.00;90.70;;;;;;5051237;28;20510;-61
2023/05/15 10:44:39;;;;;;;12.23;1.40;;;17.10;92.30;;;;;;5055789;28;20089;-62
2023/05/15 10:47:05;;;;;;;5.20;1.60;;;17.10;91.10;;;;;;5074041;28;20075;-60
2023/05/15 10:49:32;;;;;;;6.68;1.83;;;17.00;91.30;;;;;;5074694;28;20594;-60
2023/05/15 10:51:59;;;;;;;3.00;1.15;;;16.90;91.20;;;;;;5056609;28;20050;-61
2023/05/15 10:54:27;;;;;;;5.82;1.73;;;16.80;89.90;;;;;;5065278;28;20496;-60
2023/05/15 10:56:55;;;;;;;4.95;1.20;;;16.50;82.80;;;;;;5071245;28;20033;-60
2023/05/15 10:59:29;;;;;;;4.28;1.30;;;16.20;81.10;;;;;;5054731;28;20087;-60
2023/05/15 11:01:55;;;;;;;7.93;1.52;;;16.20;91.30;;;;;;5058532;28;20131;-61
2023/05/15 11:04:22;;;;;;;7.28;1.40;;;16.30;87.10;;;;;;5052917;28;20521;-62
2023/05/15 11:06:49;;;;;;;12.40;1.60;;;16.30;90.00;;;;;;5059662;28;20044;-61
2023/05/15 11:09:25;;;;;;;6.70;1.35;;;16.40;91.50;;;;;;5049492;28;20353;-60
2023/05/15 11:11:57;;;;;;;7.38;1.63;;;16.40;90.00;;;;;;5075635;28;20053;-60
2023/05/15 11:14:25;;;;;;;8.20;1.63;;;16.40;91.00;;;;;;5039371;28;20443;-61
2023/05/15 11:16:51;;;;;;;6.15;1.92;;;16.40;92.10;;;;;;5052425;28;20077;-61
2023/05/15 11:19:27;;;;;;;5.05;1.50;;;16.40;91.60;;;;;;5066297;28;20056;-61
2023/05/15 11:22:02;;;;;;;5.13;1.10;;;16.50;91.90;;;;;;5059829;28;20533;-60
2023/05/15 11:24:30;;;;;;;8.67;1.80;;;16.60;91.70;;;;;;4706140;28;10000624;-61
2023/05/15 11:27:03;;;;;;;7.53;1.33;;;16.60;90.80;;;;;;5066508;28;20105;-60
2023/05/15 11:29:33;;;;;;;7.60;1.10;;;16.60;91.80;;;;;;5065795;28;20147;-61
2023/05/15 11:32:00;;;;;;;2.90;1.00;;;16.60;91.30;;;;;;5065994;28;20051;-61
2023/05/15 11:34:33;;;;;;;5.95;1.20;;;16.50;91.70;;;;;;5048922;28;20045;-61
2023/05/15 11:37:00;;;;;;;4.15;1.23;;;16.40;92.40;;;;;;5066274;28;20172;-61
2023/05/15 11:39:27;;;;;;;5.35;1.40;;;16.40;93.60;;;;;;5066398;28;20117;-61
2023/05/15 11:41:54;;;;;;;3.17;0.90;;;16.40;94.10;;;;;;5066607;28;20498;-62
2023/05/15 11:44:22;;;;;;;2.60;0.95;;;16.50;94.00;;;;;;5046884;28;20049;-62
2023/05/15 11:46:50;;;;;;;5.10;1.98;;;16.40;93.30;;;;;;5053765;28;20500;-61
2023/05/15 11:49:19;;;;;;;6.35;1.40;;;16.40;92.20;;;;;;5066022;28;20179;-61
2023/05/15 11:51:49;;;;;;;5.68;1.00;;;16.30;92.80;;;;;;5066020;28;20139;-61
2023/05/15 11:54:16;;;;;;;6.10;0.93;;;16.40;91.60;;;;;;5071515;28;20076;-60
2023/05/15 11:56:43;;;;;;;7.05;1.00;;;16.30;93.50;;;;;;5037994;28;20045;-61
2023/05/15 11:59:13;;;;;;;2.53;1.48;;;16.40;92.90;;;;;;5055490;28;20134;-61
2023/05/15 12:01:41;;;;;;;6.88;1.08;;;16.40;91.70;;;;;;5065060;28;20147;-61
2023/05/15 12:04:15;;;;;;;4.18;1.55;;;16.40;92.40;;;;;;5065997;28;20569;-60
2023/05/15 12:06:43;;;;;;;;;;;16.50;92.00;;;;;;5066573;28;20059;-60
2023/05/15 12:09:17;;;;;;;1.85;1.00;;;16.60;90.20;;;;;;5065805;28;19931;-60
2023/05/15 12:11:51;;;;;;;8.40;1.85;;;16.70;91.40;;;;;;5066017;28;20068;-61
2023/05/15 12:14:28;;;;;;;3.47;0.80;;;16.70;91.60;;;;;;5052227;28;20048;-61
2023/05/15 12:17:03;;;;;;;3.40;1.40;;;16.70;90.50;;;;;;5065255;28;20139;-61
2023/05/15 12:19:30;;;;;;;1.83;1.13;;;16.60;91.00;;;;;;5051848;28;20094;-61
2023/05/15 12:21:57;;;;;;;3.80;0.98;;;16.70;93.20;;;;;;5065862;28;20058;-60
2023/05/15 12:24:25;;;;;;;7.60;1.20;;;16.70;92.10;;;;;;5065162;28;20048;-66
2023/05/15 12:26:52;;;;;;;2.30;0.93;;;16.70;92.50;;;;;;5065667;28;20040;-60
2023/05/15 12:29:21;;;;;;;7.38;1.23;;;16.60;92.60;;;;;;5044056;28;20432;-61
2023/05/15 12:31:52;;;;;;;5.78;1.00;;;16.50;92.70;;;;;;5076403;28;20515;-61
2023/05/15 12:34:20;;;;;;;9.20;1.17;;;16.60;93.20;;;;;;5065560;28;20059;-61
2023/05/15 12:36:46;;;;;;;8.27;1.27;;;16.70;93.70;;;;;;5048790;28;20036;-61
2023/05/15 12:39:13;;;;;;;4.65;1.13;;;16.90;93.40;;;;;;5066477;28;20555;-67
2023/05/15 12:41:40;;;;;;;6.07;0.90;;;16.70;93.00;;;;;;5037953;28;20048;-61
2023/05/15 12:44:17;;;;;;;3.92;1.10;;;16.50;92.90;;;;;;5075897;28;20083;-61
2023/05/15 12:46:45;;;;;;;6.07;0.93;;;16.60;93.60;;;;;;5046122;28;20056;-60
2023/05/15 12:49:11;;;;;;;6.57;1.38;;;16.90;93.80;;;;;;5067760;28;20196;-61
2023/05/15 12:51:42;;;;;;;4.03;1.20;;;16.90;93.00;;;;;;5078665;28;20138;-63